createdAt,value
2023-08-17T00:01:30.282Z,16.50
2023-08-17T00:03:59.052Z,9.35
2023-08-17T00:06:27.973Z,8.43
2023-08-17T00:08:56.674Z,9.32
2023-08-17T00:11:25.513Z,11.90
2023-08-17T00:13:54.287Z,8.55
2023-08-17T00:16:23.894Z,9.65
2023-08-17T00:18:52.555Z,14.60
2023-08-17T00:21:21.628Z,9.20
2023-08-17T00:23:50.836Z,8.30
2023-08-17T00:26:19.618Z,6.70
2023-08-17T00:28:48.361Z,8.07
2023-08-17T00:31:17.052Z,7.05
2023-08-17T00:33:45.840Z,6.82
2023-08-17T00:36:14.482Z,8.13
2023-08-17T00:38:43.518Z,9.65
2023-08-17T00:41:12.260Z,8.32
2023-08-17T00:43:41.005Z,7.18
2023-08-17T00:46:09.890Z,9.13
2023-08-17T00:48:39.012Z,12.85
2023-08-17T00:51:08.493Z,10.13
2023-08-17T00:53:37.551Z,10.23
2023-08-17T00:56:06.573Z,9.70
2023-08-17T00:58:35.570Z,7.97
2023-08-17T01:01:07.346Z,9.27
2023-08-17T01:03:45.470Z,6.00
2023-08-17T01:06:15.714Z,7.68
2023-08-17T01:08:46.755Z,11.43
2023-08-17T01:11:34.417Z,9.05
2023-08-17T01:14:20.527Z,12.05
2023-08-17T01:16:58.614Z,11.27
2023-08-17T01:19:30.213Z,9.05
2023-08-17T01:22:10.804Z,9.85
2023-08-17T01:24:39.658Z,8.57
2023-08-17T01:27:08.754Z,9.43
2023-08-17T01:29:40.924Z,13.63
2023-08-17T01:32:20.334Z,8.27
2023-08-17T01:35:00.785Z,8.75
2023-08-17T01:37:33.654Z,10.63
2023-08-17T01:40:02.424Z,12.18
2023-08-17T01:42:32.160Z,9.45
2023-08-17T01:45:00.894Z,11.93
2023-08-17T01:47:29.878Z,8.90
2023-08-17T01:50:01.534Z,9.60
2023-08-17T01:52:30.620Z,12.48
2023-08-17T01:54:59.357Z,13.20
2023-08-17T01:57:28.424Z,11.18
2023-08-17T01:59:57.257Z,13.25
2023-08-17T02:02:25.960Z,17.02
2023-08-17T02:04:54.715Z,13.00
2023-08-17T02:07:23.742Z,13.63
2023-08-17T02:09:52.752Z,14.80
2023-08-17T02:12:21.656Z,16.63
2023-08-17T02:14:50.274Z,12.70
2023-08-17T02:17:20.733Z,13.65
2023-08-17T02:19:49.610Z,14.95
2023-08-17T02:22:18.091Z,13.05
2023-08-17T02:24:48.413Z,15.52
2023-08-17T02:27:17.055Z,15.80
2023-08-17T02:29:45.695Z,14.90
2023-08-17T02:32:14.373Z,13.65
2023-08-17T02:34:45.853Z,13.85
2023-08-17T02:37:14.678Z,15.38
2023-08-17T02:39:43.328Z,14.48
2023-08-17T02:42:12.799Z,11.07
2023-08-17T02:44:41.457Z,10.55
2023-08-17T02:47:11.934Z,9.80
2023-08-17T02:49:40.792Z,11.05
2023-08-17T02:52:09.592Z,9.10
2023-08-17T02:54:38.278Z,9.13
2023-08-17T02:57:07.013Z,12.18
2023-08-17T02:59:35.781Z,15.55
2023-08-17T03:02:04.474Z,12.98
2023-08-17T03:04:33.389Z,9.65
2023-08-17T03:07:02.358Z,10.40
2023-08-17T03:09:31.132Z,9.32
2023-08-17T03:11:59.891Z,10.98
2023-08-17T03:14:28.511Z,12.50
2023-08-17T03:16:57.310Z,11.07
2023-08-17T03:19:25.979Z,9.85
2023-08-17T03:21:55.096Z,9.45
2023-08-17T03:24:24.291Z,9.80
2023-08-17T03:26:53.813Z,8.27
2023-08-17T03:29:22.632Z,11.18
2023-08-17T03:31:51.698Z,8.45
2023-08-17T03:34:20.611Z,8.55
2023-08-17T03:36:49.310Z,10.25
2023-08-17T03:39:18.434Z,8.77
2023-08-17T03:41:47.255Z,8.80
2023-08-17T03:44:17.430Z,9.10
2023-08-17T03:46:46.120Z,9.45
2023-08-17T03:49:16.332Z,14.35
2023-08-17T03:51:45.129Z,9.50
2023-08-17T03:54:15.103Z,13.55
2023-08-17T03:56:44.072Z,10.93
2023-08-17T03:59:12.656Z,10.82
2023-08-17T04:01:41.571Z,9.60
2023-08-17T04:04:10.535Z,11.10
2023-08-17T04:06:41.222Z,17.65
2023-08-17T04:09:09.896Z,11.25
2023-08-17T04:11:39.278Z,9.77
2023-08-17T04:14:08.247Z,10.50
2023-08-17T04:16:37.234Z,11.10
2023-08-17T04:19:06.178Z,9.60
2023-08-17T04:21:35.142Z,12.43
2023-08-17T04:24:04.381Z,11.90
2023-08-17T04:26:33.334Z,9.77
2023-08-17T04:29:02.120Z,17.15
2023-08-17T04:31:31.027Z,14.40
2023-08-17T04:34:03.239Z,12.85
2023-08-17T04:36:32.089Z,14.27
2023-08-17T04:39:01.179Z,17.05
2023-08-17T04:41:30.367Z,20.27
2023-08-17T04:43:59.253Z,17.58
2023-08-17T04:46:28.241Z,25.15
2023-08-17T04:48:57.513Z,21.70
2023-08-17T04:51:26.123Z,34.88
2023-08-17T04:53:55.051Z,16.70
2023-08-17T04:56:24.129Z,24.35
2023-08-17T04:58:52.936Z,18.88
2023-08-17T05:01:21.809Z,30.27
2023-08-17T05:03:50.784Z,15.82
2023-08-17T05:06:20.232Z,9.25
2023-08-17T05:08:49.398Z,8.52
2023-08-17T05:11:18.285Z,8.88
2023-08-17T05:13:47.735Z,9.20
2023-08-17T05:16:16.541Z,7.93
2023-08-17T05:18:46.856Z,7.18
2023-08-17T05:21:17.579Z,7.60
2023-08-17T05:23:46.376Z,10.98
2023-08-17T05:26:16.618Z,10.95
2023-08-17T05:28:46.838Z,52.88
2023-08-17T05:31:15.726Z,9.68
2023-08-17T05:33:48.833Z,8.63
2023-08-17T05:36:18.697Z,9.52
2023-08-17T05:38:49.030Z,13.55
2023-08-17T05:41:19.433Z,13.25
2023-08-17T05:43:48.314Z,9.82
2023-08-17T05:46:17.109Z,13.15
2023-08-17T05:48:45.723Z,12.60
2023-08-17T05:51:14.558Z,11.80
2023-08-17T05:53:46.049Z,9.98
2023-08-17T05:56:14.808Z,9.68
2023-08-17T05:58:44.495Z,11.93
2023-08-17T06:01:14.230Z,18.13
2023-08-17T06:03:43.388Z,24.52
2023-08-17T06:06:12.526Z,29.95
2023-08-17T06:08:41.494Z,20.02
2023-08-17T06:11:10.160Z,22.48
2023-08-17T06:13:39.034Z,17.40
2023-08-17T06:16:07.978Z,20.25
2023-08-17T06:18:36.652Z,10.98
2023-08-17T06:21:08.446Z,9.75
2023-08-17T06:23:37.374Z,9.13
2023-08-17T06:26:06.296Z,15.40
2023-08-17T06:28:35.078Z,12.15
2023-08-17T06:31:03.941Z,12.60
2023-08-17T06:33:32.861Z,10.00
2023-08-17T06:36:01.636Z,7.85
2023-08-17T06:38:30.556Z,7.47
2023-08-17T06:40:59.581Z,8.27
2023-08-17T06:43:28.515Z,6.95
2023-08-17T06:45:58.269Z,7.47
2023-08-17T06:48:27.420Z,10.35
2023-08-17T06:50:56.530Z,9.20
2023-08-17T06:53:25.177Z,8.15
2023-08-17T06:55:54.136Z,9.10
2023-08-17T06:58:22.897Z,9.93
2023-08-17T07:00:51.718Z,11.82
2023-08-17T07:03:20.710Z,8.50
2023-08-17T07:05:49.915Z,7.13
2023-08-17T07:08:18.643Z,11.68
2023-08-17T07:10:47.878Z,8.20
2023-08-17T07:13:16.412Z,8.48
2023-08-17T07:15:45.240Z,10.43
2023-08-17T07:18:13.780Z,8.70
2023-08-17T07:20:42.517Z,9.77
2023-08-17T07:23:11.195Z,15.75
2023-08-17T07:25:40.106Z,21.00
2023-08-17T07:28:09.423Z,21.77
2023-08-17T07:30:38.366Z,16.77
2023-08-17T07:33:07.593Z,26.33
2023-08-17T07:35:36.581Z,22.17
2023-08-17T07:38:09.397Z,22.73
2023-08-17T07:40:38.816Z,11.07
2023-08-17T07:43:08.066Z,16.42
2023-08-17T07:45:37.149Z,10.50
2023-08-17T07:48:06.383Z,22.42
2023-08-17T07:50:35.325Z,21.95
2023-08-17T07:53:04.414Z,11.77
2023-08-17T07:55:33.537Z,11.43
2023-08-17T07:58:02.274Z,8.48
2023-08-17T08:00:31.297Z,9.43
2023-08-17T08:03:00.082Z,12.32
2023-08-17T08:05:29.145Z,19.42
2023-08-17T08:08:00.478Z,26.05
2023-08-17T08:10:30.216Z,17.30
2023-08-17T08:12:59.385Z,25.42
2023-08-17T08:15:28.343Z,11.75
2023-08-17T08:17:57.099Z,14.38
2023-08-17T08:20:25.809Z,10.43
2023-08-17T08:22:54.910Z,9.30
2023-08-17T08:25:23.544Z,9.73
2023-08-17T08:27:52.475Z,13.00
2023-08-17T08:30:21.572Z,37.33
2023-08-17T08:32:50.514Z,31.48
2023-08-17T08:35:20.028Z,13.23
2023-08-17T08:37:48.700Z,9.40
2023-08-17T08:40:19.765Z,9.13
2023-08-17T08:42:48.696Z,12.27
2023-08-17T08:45:20.265Z,13.48
2023-08-17T08:47:50.664Z,10.80
2023-08-17T08:50:23.856Z,18.73
2023-08-17T08:53:04.555Z,23.33
2023-08-17T08:55:45.558Z,11.15
2023-08-17T08:58:16.200Z,15.15
2023-08-17T09:00:49.513Z,12.30
2023-08-17T09:03:22.533Z,12.65
2023-08-17T09:05:54.626Z,12.75
2023-08-17T09:08:25.655Z,7.18
2023-08-17T09:10:54.474Z,11.30
2023-08-17T09:13:23.518Z,10.32
2023-08-17T09:15:52.697Z,18.52
2023-08-17T09:18:21.983Z,12.05
2023-08-17T09:20:54.379Z,10.32
2023-08-17T09:23:24.136Z,27.33
2023-08-17T09:26:05.956Z,11.02
2023-08-17T09:28:35.127Z,12.77
2023-08-17T09:31:07.854Z,10.32
2023-08-17T09:33:37.423Z,10.43
2023-08-17T09:36:06.379Z,9.85
2023-08-17T09:38:35.479Z,10.68
2023-08-17T09:41:04.436Z,7.28
2023-08-17T09:43:35.287Z,8.95
2023-08-17T09:46:04.998Z,10.68
2023-08-17T09:48:34.086Z,7.57
2023-08-17T09:51:04.015Z,10.30
2023-08-17T09:53:38.118Z,20.92
2023-08-17T09:58:44.296Z,15.98
2023-08-17T10:01:15.366Z,11.98
2023-08-17T10:03:51.813Z,12.00
2023-08-17T10:06:27.707Z,15.18
2023-08-17T10:09:01.343Z,13.95
2023-08-17T10:11:35.484Z,5.72
2023-08-17T10:14:12.384Z,8.65
2023-08-17T10:16:50.239Z,24.27
2023-08-17T10:19:40.894Z,11.60
2023-08-17T10:22:21.938Z,13.10
2023-08-17T10:24:53.153Z,17.77
2023-08-17T10:27:23.334Z,11.55
2023-08-17T10:29:53.917Z,20.50
2023-08-17T10:32:26.914Z,15.50
2023-08-17T10:34:56.732Z,19.97
2023-08-17T10:37:26.477Z,11.05
2023-08-17T10:39:55.426Z,15.45
2023-08-17T10:42:38.189Z,16.63
2023-08-17T10:45:32.253Z,14.85
2023-08-17T10:48:07.943Z,11.13
2023-08-17T10:50:43.435Z,16.58
2023-08-17T10:53:19.959Z,9.43
2023-08-17T10:55:54.137Z,5.05
2023-08-17T10:58:22.951Z,7.15
2023-08-17T11:00:58.790Z,9.60
2023-08-17T11:03:35.036Z,24.90
2023-08-17T11:06:20.196Z,17.48
2023-08-17T11:08:57.856Z,4.97
2023-08-17T11:11:32.877Z,5.72
2023-08-17T11:14:01.776Z,8.20
2023-08-17T11:16:30.530Z,12.35
2023-08-17T11:19:01.340Z,5.05
2023-08-17T11:21:32.862Z,4.40
2023-08-17T11:24:02.315Z,5.50
2023-08-17T11:26:35.494Z,10.55
2023-08-17T11:29:05.714Z,3.85
2023-08-17T11:31:35.182Z,7.63
2023-08-17T11:34:04.138Z,6.38
2023-08-17T11:36:35.752Z,12.65
2023-08-17T11:39:10.559Z,20.20
2023-08-17T11:41:39.714Z,8.50
2023-08-17T11:44:08.849Z,17.63
2023-08-17T11:46:37.968Z,15.60
2023-08-17T11:49:07.640Z,4.28
2023-08-17T11:51:36.935Z,5.18
2023-08-17T11:54:11.827Z,6.53
2023-08-17T11:56:40.520Z,4.13
2023-08-17T11:59:15.800Z,5.57
2023-08-17T12:01:44.786Z,5.10
2023-08-17T12:04:17.075Z,6.30
2023-08-17T12:06:49.082Z,10.65
2023-08-17T12:09:20.774Z,4.53
2023-08-17T12:11:49.717Z,6.13
2023-08-17T12:14:18.614Z,2.83
2023-08-17T12:16:51.373Z,3.63
2023-08-17T12:19:26.604Z,2.85
2023-08-17T12:21:55.619Z,4.90
2023-08-17T12:24:26.541Z,8.82
2023-08-17T12:26:59.206Z,6.05
2023-08-17T12:29:30.419Z,4.85
2023-08-17T12:32:00.452Z,4.25
2023-08-17T12:34:29.320Z,7.85
2023-08-17T12:36:58.285Z,7.93
2023-08-17T12:39:27.134Z,7.30
2023-08-17T12:41:55.630Z,17.45
2023-08-17T12:44:24.665Z,5.40
2023-08-17T12:46:53.374Z,7.43
2023-08-17T12:49:21.908Z,7.95
2023-08-17T12:51:50.456Z,12.73
2023-08-17T12:54:19.568Z,6.72
2023-08-17T12:56:48.353Z,2.80
2023-08-17T12:59:17.045Z,5.47
2023-08-17T13:01:45.787Z,4.03
2023-08-17T13:04:15.161Z,2.55
2023-08-17T13:06:49.851Z,6.70
2023-08-17T13:09:20.802Z,7.53
2023-08-17T13:11:56.591Z,4.65
2023-08-17T13:14:25.370Z,6.90
2023-08-17T13:16:54.414Z,5.63
2023-08-17T13:19:23.113Z,7.18
2023-08-17T13:21:52.112Z,4.75
2023-08-17T13:24:21.601Z,7.07
2023-08-17T13:26:54.484Z,6.95
2023-08-17T13:29:23.721Z,7.70
2023-08-17T13:31:52.529Z,8.13
2023-08-17T13:34:21.377Z,4.95
2023-08-17T13:36:50.197Z,11.15
2023-08-17T13:39:19.051Z,14.88
2023-08-17T13:41:48.242Z,6.45
2023-08-17T13:44:17.018Z,6.07
2023-08-17T13:46:45.684Z,10.50
2023-08-17T13:49:17.225Z,17.40
2023-08-17T13:51:46.181Z,16.38
2023-08-17T13:54:14.906Z,9.10
2023-08-17T13:56:43.819Z,13.73
2023-08-17T13:59:13.107Z,14.93
2023-08-17T14:01:41.913Z,24.35
2023-08-17T14:04:13.999Z,46.97
2023-08-17T14:06:43.110Z,60.30
2023-08-17T14:09:12.042Z,67.55
2023-08-17T14:11:40.662Z,41.78
2023-08-17T14:14:11.004Z,108.30
2023-08-17T14:16:40.240Z,62.80
2023-08-17T14:19:09.000Z,92.70
2023-08-17T14:21:40.027Z,82.25
2023-08-17T14:24:11.552Z,189.27
2023-08-17T14:26:40.783Z,226.02
2023-08-17T14:29:09.548Z,190.35
2023-08-17T14:31:38.510Z,118.82
2023-08-17T14:34:07.578Z,355.38
2023-08-17T14:36:36.280Z,215.15
2023-08-17T14:39:05.421Z,161.98
2023-08-17T14:41:34.319Z,155.23
2023-08-17T14:44:03.833Z,93.72
2023-08-17T14:46:32.710Z,39.25
2023-08-17T14:49:01.698Z,23.10
2023-08-17T14:51:31.964Z,19.45
2023-08-17T14:54:01.009Z,40.45
2023-08-17T14:56:29.723Z,33.70
2023-08-17T14:58:58.280Z,19.80
2023-08-17T15:01:27.199Z,13.45
2023-08-17T15:03:56.094Z,15.40
2023-08-17T15:06:34.392Z,14.77
2023-08-17T15:09:05.238Z,12.82
2023-08-17T15:11:34.402Z,14.13
2023-08-17T15:14:03.284Z,11.57
2023-08-17T15:16:32.531Z,26.17
2023-08-17T15:19:01.510Z,36.22
2023-08-17T15:21:30.339Z,35.80
2023-08-17T15:24:00.613Z,27.23
2023-08-17T15:26:32.664Z,21.48
2023-08-17T15:29:01.839Z,23.40
2023-08-17T15:31:30.802Z,24.27
2023-08-17T15:33:59.759Z,28.65
2023-08-17T15:36:28.787Z,35.17
2023-08-17T15:38:57.848Z,43.50
2023-08-17T15:41:26.621Z,41.00
2023-08-17T15:43:55.387Z,41.90
2023-08-17T15:46:27.083Z,51.15
2023-08-17T15:48:58.686Z,188.73
2023-08-17T15:51:29.560Z,64.53
2023-08-17T15:53:58.715Z,36.50
2023-08-17T15:56:28.059Z,32.20
2023-08-17T15:58:56.898Z,36.47
2023-08-17T16:01:25.597Z,43.10
2023-08-17T16:03:54.351Z,46.33
2023-08-17T16:06:23.478Z,49.20
2023-08-17T16:08:53.716Z,43.03
2023-08-17T16:11:22.819Z,46.42
2023-08-17T16:13:51.665Z,38.88
2023-08-17T16:16:22.448Z,30.63
2023-08-17T16:18:53.140Z,31.83
2023-08-17T16:21:21.901Z,32.53
2023-08-17T16:23:50.985Z,26.10
2023-08-17T16:26:19.697Z,21.50
2023-08-17T16:28:51.345Z,20.23
2023-08-17T16:31:20.374Z,18.33
2023-08-17T16:33:49.382Z,23.80
2023-08-17T16:36:18.633Z,22.05
2023-08-17T16:38:49.155Z,26.92
2023-08-17T16:41:24.481Z,23.50
2023-08-17T16:43:53.557Z,20.88
2023-08-17T16:46:25.775Z,19.60
2023-08-17T16:48:54.755Z,16.73
2023-08-17T16:51:23.703Z,18.45
2023-08-17T16:53:52.411Z,15.25
2023-08-17T16:56:21.281Z,12.32
2023-08-17T16:58:52.665Z,16.70
2023-08-17T17:01:21.768Z,14.77
2023-08-17T17:03:51.143Z,12.10
2023-08-17T17:06:21.199Z,21.38
2023-08-17T17:08:50.153Z,30.63
2023-08-17T17:11:19.223Z,15.88
2023-08-17T17:13:48.416Z,22.88
2023-08-17T17:16:17.202Z,14.60
2023-08-17T17:18:46.254Z,15.02
2023-08-17T17:21:17.989Z,23.73
2023-08-17T17:23:46.895Z,18.92
2023-08-17T17:26:16.032Z,20.05
2023-08-17T17:28:45.072Z,16.05
2023-08-17T17:31:14.793Z,21.13
2023-08-17T17:33:46.274Z,21.50
2023-08-17T17:36:14.541Z,15.20
2023-08-17T17:38:43.302Z,12.63
2023-08-17T17:41:12.318Z,12.95
2023-08-17T17:43:41.338Z,10.40
2023-08-17T17:46:13.374Z,11.93
2023-08-17T17:48:43.094Z,13.40
2023-08-17T17:51:11.719Z,15.43
2023-08-17T17:53:43.389Z,14.38
2023-08-17T17:56:15.140Z,10.40
2023-08-17T17:58:43.849Z,9.55
2023-08-17T18:01:12.749Z,9.75
2023-08-17T18:03:41.697Z,8.93
2023-08-17T18:06:12.154Z,9.95
2023-08-17T18:08:40.869Z,11.50
2023-08-17T18:11:09.489Z,11.10
2023-08-17T18:13:38.403Z,13.07
2023-08-17T18:16:07.119Z,14.73
2023-08-17T18:18:38.718Z,19.13
2023-08-17T18:21:08.358Z,11.55
2023-08-17T18:23:37.323Z,14.45
2023-08-17T18:26:06.046Z,11.30
2023-08-17T18:28:34.711Z,11.70
2023-08-17T18:31:03.520Z,12.48
2023-08-17T18:33:32.755Z,10.02
2023-08-17T18:36:01.825Z,9.05
2023-08-17T18:38:30.273Z,7.35
2023-08-17T18:41:09.637Z,8.38
2023-08-17T18:43:39.337Z,7.05
2023-08-17T18:46:09.504Z,7.90
2023-08-17T18:48:38.677Z,31.35
2023-08-17T18:51:07.417Z,23.75
2023-08-17T18:53:36.218Z,8.63
2023-08-17T18:56:05.640Z,29.58
2023-08-17T18:58:34.666Z,6.80
2023-08-17T19:01:04.818Z,14.13
2023-08-17T19:03:34.172Z,6.20
2023-08-17T19:06:04.155Z,5.38
2023-08-17T19:08:33.082Z,12.45
2023-08-17T19:11:01.931Z,7.88
2023-08-17T19:13:30.621Z,6.30
2023-08-17T19:15:59.430Z,6.63
2023-08-17T19:18:31.076Z,5.50
2023-08-17T19:20:59.955Z,5.88
2023-08-17T19:23:28.988Z,5.90
2023-08-17T19:25:57.942Z,6.47
2023-08-17T19:28:26.726Z,7.07
2023-08-17T19:30:55.385Z,11.95
2023-08-17T19:33:24.118Z,8.77
2023-08-17T19:35:55.562Z,9.20
2023-08-17T19:38:24.396Z,7.50
2023-08-17T19:40:53.245Z,6.93
2023-08-17T19:43:22.095Z,6.45
2023-08-17T19:45:50.959Z,5.63
2023-08-17T19:48:19.725Z,7.35
2023-08-17T19:50:49.203Z,3.75
2023-08-17T19:53:17.989Z,6.05
2023-08-17T19:55:46.790Z,4.95
2023-08-17T19:58:15.145Z,5.75
2023-08-17T20:00:44.122Z,4.35
2023-08-17T20:03:12.892Z,8.63
2023-08-17T20:05:41.769Z,3.83
2023-08-17T20:08:10.964Z,5.80
2023-08-17T20:10:39.866Z,5.18
2023-08-17T20:13:08.458Z,4.95
2023-08-17T20:15:37.225Z,6.47
2023-08-17T20:18:06.409Z,4.63
2023-08-17T20:20:35.126Z,4.57
2023-08-17T20:23:06.469Z,3.28
2023-08-17T20:25:35.181Z,4.55
2023-08-17T20:28:03.948Z,3.92
2023-08-17T20:30:32.802Z,3.10
2023-08-17T20:33:01.510Z,3.63
2023-08-17T20:35:30.397Z,4.28
2023-08-17T20:37:59.166Z,5.28
2023-08-17T20:40:27.874Z,4.40
2023-08-17T20:42:56.430Z,2.88
2023-08-17T20:45:25.540Z,3.00
2023-08-17T20:47:55.689Z,4.05
2023-08-17T20:50:24.582Z,3.53
2023-08-17T20:52:53.200Z,3.28
2023-08-17T20:55:24.380Z,4.80
2023-08-17T20:57:53.052Z,4.28
2023-08-17T21:00:22.244Z,3.58
2023-08-17T21:02:51.447Z,25.92
2023-08-17T21:05:20.394Z,22.38
2023-08-17T21:07:49.179Z,3.65
2023-08-17T21:10:18.535Z,2.83
2023-08-17T21:12:47.320Z,5.85
2023-08-17T21:15:16.569Z,5.97
2023-08-17T21:17:46.198Z,5.32
2023-08-17T21:20:15.324Z,3.40
2023-08-17T21:22:52.416Z,2.60
2023-08-17T21:25:21.278Z,2.83
2023-08-17T21:27:50.104Z,6.80
2023-08-17T21:30:18.848Z,4.20
2023-08-17T21:32:47.649Z,2.92
2023-08-17T21:35:16.358Z,5.05
2023-08-17T21:37:46.359Z,3.85
2023-08-17T21:40:15.200Z,2.60
2023-08-17T21:42:44.110Z,3.17
2023-08-17T21:45:12.964Z,4.50
2023-08-17T21:48:00.274Z,5.38
2023-08-17T21:50:29.182Z,3.13
2023-08-17T21:52:59.538Z,3.45
2023-08-17T21:55:28.336Z,5.45
2023-08-17T21:57:57.757Z,2.78
2023-08-17T22:00:27.039Z,5.35
2023-08-17T22:02:59.363Z,3.33
2023-08-17T22:05:28.061Z,5.32
2023-08-17T22:07:57.217Z,3.58
2023-08-17T22:10:26.253Z,3.50
2023-08-17T22:12:55.797Z,3.33
2023-08-17T22:15:25.957Z,4.45
2023-08-17T22:17:55.331Z,4.45
2023-08-17T22:20:24.312Z,4.05
2023-08-17T22:22:53.506Z,4.00
2023-08-17T22:25:22.621Z,3.75
2023-08-17T22:27:51.717Z,6.82
2023-08-17T22:30:20.517Z,4.80
2023-08-17T22:32:49.868Z,4.03
2023-08-17T22:35:18.771Z,6.88
2023-08-17T22:37:47.981Z,3.90
2023-08-17T22:40:17.448Z,6.28
2023-08-17T22:42:46.763Z,4.40
2023-08-17T22:45:15.996Z,4.82
2023-08-17T22:47:45.159Z,4.53
2023-08-17T22:50:14.174Z,5.82
2023-08-17T22:52:43.245Z,5.30
2023-08-17T22:55:12.246Z,6.07
2023-08-17T22:57:41.312Z,11.65
2023-08-17T23:00:10.845Z,9.32
2023-08-17T23:02:40.125Z,11.27
2023-08-17T23:05:12.371Z,11.25
2023-08-17T23:07:41.218Z,9.57
2023-08-17T23:10:10.385Z,11.30
2023-08-17T23:12:39.459Z,9.20
2023-08-17T23:15:08.530Z,8.35
2023-08-17T23:17:39.804Z,8.27
2023-08-17T23:20:09.164Z,8.38
2023-08-17T23:22:38.342Z,7.38
2023-08-17T23:25:09.369Z,7.68
2023-08-17T23:27:38.275Z,8.02
2023-08-17T23:30:07.944Z,8.90
2023-08-17T23:32:36.679Z,8.73
2023-08-17T23:35:05.829Z,7.88
2023-08-17T23:37:34.634Z,7.43
2023-08-17T23:40:03.396Z,7.72
2023-08-17T23:42:34.917Z,8.32
2023-08-17T23:45:03.681Z,10.48
2023-08-17T23:47:32.653Z,9.80
2023-08-17T23:50:01.537Z,7.57
2023-08-17T23:52:30.157Z,9.13
2023-08-17T23:54:58.904Z,8.32
2023-08-17T23:57:28.091Z,7.72
2023-08-17T23:59:57.957Z,12.55
